Zodiac — WTH5653 — position and weather

sailwx.info

Track history (hours):
 
Tides and Currents Weather Stations Pressure Air Temp Water Temp Dewpoint Dewpoint Depression Visibility Wind Speed Wind Dir Waves Ship Positions

Zodiac

Ship's website: http://www.schoonerzodiac.com/

Owner: VESSEL ZODIAC CORP, Bellingham, WA. More information available from US FCC via Universal Licensing System and Coast Guard Vessel Documentation Center.

Last reported at 2018-Apr-20 02:10 UTC. Time now 2018-Apr-20 06:46 UTC.
Position N 48°43' W 122°31'.

Length 34 m; draft 4.9 m.

Type: Sailing vessel. MMSI: 366968070.

Date/timePositionNaut miles runAvg speedWind from/ knotsBaromVisibWave heightAir tempDewpointWater temp
2018-Apr-20 02:10N 48°43' W 122°31'0 0.0
2018-Apr-20 01:58N 48°43' W 122°31'0 0.0
2018-Apr-20 01:28N 48°43' W 122°31'0 0.0
2018-Apr-20 00:58N 48°43' W 122°31'0 0.0
2018-Apr-20 00:28N 48°43' W 122°31'0 0.0
2018-Apr-19 23:58N 48°43' W 122°31'0 0.1
2018-Apr-19 21:53N 48°43' W 122°31'5 1.9
2018-Apr-19 19:15N 48°39' W 122°34'1 5.7
2018-Apr-19 19:00N 48°38' W 122°35'3 6.2
2018-Apr-19 18:28N 48°36' W 122°39'3 5.7
2018-Apr-19 18:00N 48°33' W 122°41'3 5.4
2018-Apr-19 17:30N 48°31' W 122°43'4 8.7
2018-Apr-19 17:00N 48°32' W 122°50'1 1.7
2018-Apr-19 16:28N 48°32' W 122°51'0 0.0
2018-Apr-19 15:58N 48°32' W 122°51'0 0.0
2018-Apr-19 15:25N 48°32' W 122°51'0 0.0
2018-Apr-19 14:58N 48°32' W 122°51'0 0.0
2018-Apr-19 14:31N 48°32' W 122°51'0 0.0
2018-Apr-19 13:55N 48°32' W 122°51'0 0.0
2018-Apr-19 13:28N 48°32' W 122°51'0 0.0
2018-Apr-19 12:34N 48°32' W 122°51'0 0.0
2018-Apr-19 12:28N 48°32' W 122°51'0 0.0
2018-Apr-19 11:58N 48°32' W 122°51'0 0.0
2018-Apr-19 11:28N 48°32' W 122°51'0 0.0
2018-Apr-19 10:58N 48°32' W 122°51'0 0.0
2018-Apr-19 10:28N 48°32' W 122°51'0 0.0
2018-Apr-19 09:58N 48°32' W 122°51'0 0.0
2018-Apr-19 09:28N 48°32' W 122°51'0 0.0
2018-Apr-19 08:58N 48°32' W 122°51'0 0.0
2018-Apr-19 08:28N 48°32' W 122°51'0 0.0
2018-Apr-19 07:58N 48°32' W 122°51'0 0.0
2018-Apr-19 07:28N 48°32' W 122°51'0 0.0
2018-Apr-19 07:01N 48°32' W 122°51'0 0.0
2018-Apr-19 06:28N 48°32' W 122°51'0 0.0
2018-Apr-19 05:58N 48°32' W 122°51'0 0.0
2018-Apr-19 05:25N 48°32' W 122°51'0 0.0
2018-Apr-19 04:58N 48°32' W 122°51'0 0.0
2018-Apr-19 04:28N 48°32' W 122°51'0 0.0
2018-Apr-19 04:01N 48°32' W 122°51'0 0.1
2018-Apr-19 03:28N 48°32' W 122°51'0 0.1
2018-Apr-19 02:58N 48°32' W 122°51'0 0.0
2018-Apr-19 02:16N 48°32' W 122°51'0 0.0
2018-Apr-19 02:01N 48°32' W 122°51'0 0.1
2018-Apr-19 01:30N 48°32' W 122°51'2 4.9
2018-Apr-19 01:00N 48°34' W 122°53'4 7.3
2018-Apr-19 00:30N 48°32' W 122°57'3 6.0
2018-Apr-19 00:00N 48°34' W 123°01'4 8.2
2018-Apr-18 23:30N 48°37' W 123°05'3 6.0
2018-Apr-18 22:57N 48°37' W 123°10'0 0.0
2018-Apr-18 17:12N 48°37' W 123°10'2 9.8
2018-Apr-18 17:00N 48°38' W 123°07'4 7.8
2018-Apr-18 16:30N 48°40' W 123°02'510.2
2018-Apr-18 15:59N 48°43' W 122°56'4 0.2
2018-Apr-17 23:23N 48°44' W 122°50'2 4.9
2018-Apr-17 22:57N 48°43' W 122°47'2 4.5
2018-Apr-17 22:25N 48°42' W 122°45'2 4.3
2018-Apr-17 22:00N 48°41' W 122°42'2 3.8
2018-Apr-17 21:30N 48°40' W 122°40'1 2.6
2018-Apr-17 21:01N 48°39' W 122°39'1 2.2
2018-Apr-17 20:30N 48°38' W 122°37'3 5.2
2018-Apr-17 20:00N 48°40' W 122°34'4 7.3
2018-Apr-17 19:30N 48°43' W 122°32'1 1.3
2018-Apr-17 18:59N 48°43' W 122°31'0 0.0
2018-Apr-17 18:29N 48°43' W 122°31'0 0.0
2018-Apr-17 17:59N 48°43' W 122°31'0 0.0
2018-Apr-17 17:23N 48°43' W 122°31'0 0.0
2018-Apr-17 16:53N 48°43' W 122°31'0 0.0
2018-Apr-17 16:11N 48°43' W 122°31'0 0.0
2018-Apr-17 15:59N 48°43' W 122°31'0 0.0
2018-Apr-17 15:23N 48°43' W 122°31'0 0.0
2018-Apr-17 14:53N 48°43' W 122°31'0 0.0
2018-Apr-17 14:23N 48°43' W 122°31'0 0.0
2018-Apr-17 13:59N 48°43' W 122°31'0 0.0
2018-Apr-17 13:29N 48°43' W 122°31'0 0.0
2018-Apr-17 12:59N 48°43' W 122°31'0 0.0
2018-Apr-17 12:29N 48°43' W 122°31'0 0.0
2018-Apr-17 11:32N 48°43' W 122°31'0 0.0
2018-Apr-17 11:20N 48°43' W 122°31'0 0.0
2018-Apr-17 10:29N 48°43' W 122°31'0 0.0
2018-Apr-17 09:53N 48°43' W 122°31'0 0.0
2018-Apr-17 09:29N 48°43' W 122°31'0 0.0
2018-Apr-17 07:53N 48°43' W 122°31'0 0.0
2018-Apr-17 07:08N 48°43' W 122°31'0 0.0
2018-Apr-17 06:53N 48°43' W 122°31'0 0.0
2018-Apr-17 06:23N 48°43' W 122°31'0 0.0
2018-Apr-17 05:53N 48°43' W 122°31'0 0.0
2018-Apr-17 05:23N 48°43' W 122°31'0 0.0
2018-Apr-17 04:59N 48°43' W 122°31'0 0.0
2018-Apr-17 04:29N 48°43' W 122°31'0 0.0
2018-Apr-17 03:59N 48°43' W 122°31'0 0.0
2018-Apr-17 03:23N 48°43' W 122°31'0 0.0
2018-Apr-17 02:59N 48°43' W 122°31'0 0.0
2018-Apr-17 02:29N 48°43' W 122°31'0 0.0
2018-Apr-17 01:53N 48°43' W 122°31'0 0.0
2018-Apr-17 01:23N 48°43' W 122°31'0 0.0
2018-Apr-17 00:53N 48°43' W 122°31'0 0.0
2018-Apr-17 00:08N 48°43' W 122°31'0 0.0
2018-Apr-16 23:53N 48°43' W 122°31'0 0.0
2018-Apr-16 22:35N 48°43' W 122°31'0 0.0
2018-Apr-16 22:11N 48°43' W 122°31'0 0.0
2018-Apr-16 21:53N 48°43' W 122°31'0 0.0
2018-Apr-16 21:29N 48°43' W 122°31'0 0.0
2018-Apr-16 20:59N 48°43' W 122°31'0 0.0
2018-Apr-16 20:23N 48°43' W 122°31'0 0.0
2018-Apr-16 19:53N 48°43' W 122°31'0 0.0
2018-Apr-16 19:29N 48°43' W 122°31'0 0.0
2018-Apr-16 18:53N 48°43' W 122°31'0 0.0
2018-Apr-16 18:29N 48°43' W 122°31'0 0.0
2018-Apr-16 17:59N 48°43' W 122°31'0 0.0
2018-Apr-16 17:29N 48°43' W 122°31'0 0.0
2018-Apr-16 16:59N 48°43' W 122°31'0 0.0
2018-Apr-16 16:29N 48°43' W 122°31'0 0.0
2018-Apr-16 15:59N 48°43' W 122°31'0 0.0
2018-Apr-16 15:08N 48°43' W 122°31'0 0.0
2018-Apr-16 14:59N 48°43' W 122°31'0 0.0
2018-Apr-16 14:29N 48°43' W 122°31'0 0.0
2018-Apr-16 13:53N 48°43' W 122°31'0 0.0
2018-Apr-16 13:29N 48°43' W 122°31'0 0.0
2018-Apr-16 12:59N 48°43' W 122°31'0 0.0
2018-Apr-16 12:23N 48°43' W 122°31'0 0.0
2018-Apr-16 11:59N 48°43' W 122°31'0 0.0
2018-Apr-16 11:29N 48°43' W 122°31'0 0.0
2018-Apr-16 10:59N 48°43' W 122°31'0 0.0
2018-Apr-16 09:35N 48°43' W 122°31'0 0.1
2018-Apr-16 09:29N 48°43' W 122°31'0 0.0
2018-Apr-16 08:53N 48°43' W 122°31'0 0.0
2018-Apr-16 08:23N 48°43' W 122°31'0 0.0
2018-Apr-16 06:59N 48°43' W 122°31'0 0.0
2018-Apr-16 06:29N 48°43' W 122°31'0 0.0
2018-Apr-16 05:59N 48°43' W 122°31'0 0.0
2018-Apr-16 03:05N 48°43' W 122°31'0 0.0
2018-Apr-16 02:41N 48°43' W 122°31'0 0.0
2018-Apr-16 02:11N 48°43' W 122°31'0 0.0
2018-Apr-16 01:08N 48°43' W 122°31'0 0.0
2018-Apr-16 00:59N 48°43' W 122°31'0 0.0
2018-Apr-16 00:23N 48°43' W 122°31'0 0.0
2018-Apr-15 23:41N 48°43' W 122°31'0 0.0
2018-Apr-15 21:44N 48°43' W 122°31'1 4.2
2018-Apr-15 21:30N 48°43' W 122°32'4 6.6
2018-Apr-15 20:58N 48°39' W 122°34'3 4.6
2018-Apr-15 20:15N 48°37' W 122°37'0 0.1
2018-Apr-15 19:43N 48°37' W 122°37'0 0.3
2018-Apr-15 19:25N 48°37' W 122°37'0 0.2
2018-Apr-15 18:59N 48°37' W 122°37'4 7.7
2018-Apr-15 18:31N 48°40' W 122°41'4 8.1
2018-Apr-15 18:01N 48°42' W 122°45'4 8.6
2018-Apr-15 17:31N 48°44' W 122°51'2 0.1
2018-Apr-15 01:08N 48°46' W 122°54'1 3.9
2018-Apr-15 00:48N 48°46' W 122°52'5 5.9
2018-Apr-15 00:02N 48°47' W 122°58'0 3.2
2018-Apr-15 00:00N 48°47' W 122°58'0 0.1
2018-Apr-14 23:12N 48°47' W 122°58'0 0.4
2018-Apr-14 22:58N 48°47' W 122°58'3 1.6
2018-Apr-14 21:21N 48°47' W 123°02'1 3.8
2018-Apr-14 20:57N 48°46' W 123°04'2 5.3
2018-Apr-14 20:30N 48°44' W 123°05'3 3.2
2018-Apr-14 19:33N 48°41' W 123°08'1 2.5
2018-Apr-14 19:21N 48°41' W 123°08'2 2.0
2018-Apr-14 18:28N 48°39' W 123°07'3 0.4
2018-Apr-14 11:45N 48°40' W 123°11'0 0.0
2018-Apr-14 09:54N 48°40' W 123°11'0 0.0
2018-Apr-14 09:24N 48°40' W 123°11'1 0.1
2018-Apr-14 00:08N 48°39' W 123°11'1 9.3
2018-Apr-14 00:00N 48°40' W 123°13'2 0.3
2018-Apr-13 19:22N 48°41' W 123°12'2 4.2
2018-Apr-13 19:00N 48°41' W 123°09'3 5.9
2018-Apr-13 18:30N 48°39' W 123°07'3 6.4
2018-Apr-13 18:00N 48°36' W 123°04'2 4.7
2018-Apr-13 17:30N 48°34' W 123°02'2 3.4
2018-Apr-13 16:59N 48°33' W 123°00'1 1.2
2018-Apr-13 16:30N 48°32' W 123°01'2 3.3
2018-Apr-13 15:59N 48°34' W 122°59'0 0.0
2018-Apr-13 15:23N 48°34' W 122°59'0 0.0
2018-Apr-13 14:44N 48°34' W 122°59'0 0.0
2018-Apr-13 14:29N 48°34' W 122°59'0 0.0
2018-Apr-13 13:53N 48°34' W 122°59'0 0.0
2018-Apr-13 13:29N 48°34' W 122°59'0 0.0
2018-Apr-13 12:59N 48°34' W 122°59'0 0.0
2018-Apr-13 12:29N 48°34' W 122°59'0 0.0
2018-Apr-13 11:59N 48°34' W 122°59'0 0.0
2018-Apr-13 11:29N 48°34' W 122°59'0 0.0
2018-Apr-13 10:59N 48°34' W 122°59'0 0.0
2018-Apr-13 10:23N 48°34' W 122°59'0 0.1
2018-Apr-13 09:59N 48°34' W 122°59'0 0.0
2018-Apr-13 09:29N 48°34' W 122°59'0 0.0
2018-Apr-13 04:02N 48°34' W 122°59'0 0.0
2018-Apr-13 03:53N 48°34' W 122°59'0 0.0
2018-Apr-13 03:29N 48°34' W 122°59'1 1.7
2018-Apr-13 03:00N 48°33' W 122°59'4 7.3
2018-Apr-13 02:30N 48°34' W 122°54'0 0.5
2018-Apr-13 02:00N 48°35' W 122°54'1 2.6
2018-Apr-13 01:30N 48°34' W 122°52'2 3.5
2018-Apr-13 01:00N 48°33' W 122°50'2 4.7
2018-Apr-13 00:31N 48°32' W 122°47'1 2.6
2018-Apr-12 23:59N 48°31' W 122°45'1 2.2
2018-Apr-12 23:23N 48°29' W 122°45'1 1.7
2018-Apr-12 22:51N 48°28' W 122°45'1 2.5
2018-Apr-12 22:21N 48°29' W 122°43'0 0.3
2018-Apr-12 21:54N 48°29' W 122°43'11 4.3
2018-Apr-12 19:15N 48°39' W 122°34'3 8.0
2018-Apr-12 18:51N 48°42' W 122°32'2 5.7
2018-Apr-12 18:28N 48°43' W 122°31'  
Track history (hours):
 
Tides and Currents Weather Stations Pressure Air Temp Water Temp Dewpoint Dewpoint Depression Visibility Wind Speed Wind Dir Waves Ship Positions

Zodiac

Ship's website: http://www.schoonerzodiac.com/

Owner: VESSEL ZODIAC CORP, Bellingham, WA. More information available from US FCC via Universal Licensing System and Coast Guard Vessel Documentation Center.

Last reported at 2018-Apr-20 02:10 UTC. Time now 2018-Apr-20 06:46 UTC.
Position N 48°43' W 122°31'.

Length 34 m; draft 4.9 m.

Type: Sailing vessel. MMSI: 366968070.

Date/timePositionNaut miles runAvg speedWind from/ knotsBaromVisibWave heightAir tempDewpointWater temp
2018-Apr-20 02:10N 48°43' W 122°31'0 0.0
2018-Apr-20 01:58N 48°43' W 122°31'0 0.0
2018-Apr-20 01:28N 48°43' W 122°31'0 0.0
2018-Apr-20 00:58N 48°43' W 122°31'0 0.0
2018-Apr-20 00:28N 48°43' W 122°31'0 0.0
2018-Apr-19 23:58N 48°43' W 122°31'0 0.1
2018-Apr-19 21:53N 48°43' W 122°31'5 1.9
2018-Apr-19 19:15N 48°39' W 122°34'1 5.7
2018-Apr-19 19:00N 48°38' W 122°35'3 6.2
2018-Apr-19 18:28N 48°36' W 122°39'3 5.7
2018-Apr-19 18:00N 48°33' W 122°41'3 5.4
2018-Apr-19 17:30N 48°31' W 122°43'4 8.7
2018-Apr-19 17:00N 48°32' W 122°50'1 1.7
2018-Apr-19 16:28N 48°32' W 122°51'0 0.0
2018-Apr-19 15:58N 48°32' W 122°51'0 0.0
2018-Apr-19 15:25N 48°32' W 122°51'0 0.0
2018-Apr-19 14:58N 48°32' W 122°51'0 0.0
2018-Apr-19 14:31N 48°32' W 122°51'0 0.0
2018-Apr-19 13:55N 48°32' W 122°51'0 0.0
2018-Apr-19 13:28N 48°32' W 122°51'0 0.0
2018-Apr-19 12:34N 48°32' W 122°51'0 0.0
2018-Apr-19 12:28N 48°32' W 122°51'0 0.0
2018-Apr-19 11:58N 48°32' W 122°51'0 0.0
2018-Apr-19 11:28N 48°32' W 122°51'0 0.0
2018-Apr-19 10:58N 48°32' W 122°51'0 0.0
2018-Apr-19 10:28N 48°32' W 122°51'0 0.0
2018-Apr-19 09:58N 48°32' W 122°51'0 0.0
2018-Apr-19 09:28N 48°32' W 122°51'0 0.0
2018-Apr-19 08:58N 48°32' W 122°51'0 0.0
2018-Apr-19 08:28N 48°32' W 122°51'0 0.0
2018-Apr-19 07:58N 48°32' W 122°51'0 0.0
2018-Apr-19 07:28N 48°32' W 122°51'0 0.0
2018-Apr-19 07:01N 48°32' W 122°51'0 0.0
2018-Apr-19 06:28N 48°32' W 122°51'0 0.0
2018-Apr-19 05:58N 48°32' W 122°51'0 0.0
2018-Apr-19 05:25N 48°32' W 122°51'0 0.0
2018-Apr-19 04:58N 48°32' W 122°51'0 0.0
2018-Apr-19 04:28N 48°32' W 122°51'0 0.0
2018-Apr-19 04:01N 48°32' W 122°51'0 0.1
2018-Apr-19 03:28N 48°32' W 122°51'0 0.1
2018-Apr-19 02:58N 48°32' W 122°51'0 0.0
2018-Apr-19 02:16N 48°32' W 122°51'0 0.0
2018-Apr-19 02:01N 48°32' W 122°51'0 0.1
2018-Apr-19 01:30N 48°32' W 122°51'2 4.9
2018-Apr-19 01:00N 48°34' W 122°53'4 7.3
2018-Apr-19 00:30N 48°32' W 122°57'3 6.0
2018-Apr-19 00:00N 48°34' W 123°01'4 8.2
2018-Apr-18 23:30N 48°37' W 123°05'3 6.0
2018-Apr-18 22:57N 48°37' W 123°10'0 0.0
2018-Apr-18 17:12N 48°37' W 123°10'2 9.8
2018-Apr-18 17:00N 48°38' W 123°07'4 7.8
2018-Apr-18 16:30N 48°40' W 123°02'510.2
2018-Apr-18 15:59N 48°43' W 122°56'4 0.2
2018-Apr-17 23:23N 48°44' W 122°50'2 4.9
2018-Apr-17 22:57N 48°43' W 122°47'2 4.5
2018-Apr-17 22:25N 48°42' W 122°45'2 4.3
2018-Apr-17 22:00N 48°41' W 122°42'2 3.8
2018-Apr-17 21:30N 48°40' W 122°40'1 2.6
2018-Apr-17 21:01N 48°39' W 122°39'1 2.2
2018-Apr-17 20:30N 48°38' W 122°37'3 5.2
2018-Apr-17 20:00N 48°40' W 122°34'4 7.3
2018-Apr-17 19:30N 48°43' W 122°32'1 1.3
2018-Apr-17 18:59N 48°43' W 122°31'0 0.0
2018-Apr-17 18:29N 48°43' W 122°31'0 0.0
2018-Apr-17 17:59N 48°43' W 122°31'0 0.0
2018-Apr-17 17:23N 48°43' W 122°31'0 0.0
2018-Apr-17 16:53N 48°43' W 122°31'0 0.0
2018-Apr-17 16:11N 48°43' W 122°31'0 0.0
2018-Apr-17 15:59N 48°43' W 122°31'0 0.0
2018-Apr-17 15:23N 48°43' W 122°31'0 0.0
2018-Apr-17 14:53N 48°43' W 122°31'0 0.0
2018-Apr-17 14:23N 48°43' W 122°31'0 0.0
2018-Apr-17 13:59N 48°43' W 122°31'0 0.0
2018-Apr-17 13:29N 48°43' W 122°31'0 0.0
2018-Apr-17 12:59N 48°43' W 122°31'0 0.0
2018-Apr-17 12:29N 48°43' W 122°31'0 0.0
2018-Apr-17 11:32N 48°43' W 122°31'0 0.0
2018-Apr-17 11:20N 48°43' W 122°31'0 0.0
2018-Apr-17 10:29N 48°43' W 122°31'0 0.0
2018-Apr-17 09:53N 48°43' W 122°31'0 0.0
2018-Apr-17 09:29N 48°43' W 122°31'0 0.0
2018-Apr-17 07:53N 48°43' W 122°31'0 0.0
2018-Apr-17 07:08N 48°43' W 122°31'0 0.0
2018-Apr-17 06:53N 48°43' W 122°31'0 0.0
2018-Apr-17 06:23N 48°43' W 122°31'0 0.0
2018-Apr-17 05:53N 48°43' W 122°31'0 0.0
2018-Apr-17 05:23N 48°43' W 122°31'0 0.0
2018-Apr-17 04:59N 48°43' W 122°31'0 0.0
2018-Apr-17 04:29N 48°43' W 122°31'0 0.0
2018-Apr-17 03:59N 48°43' W 122°31'0 0.0
2018-Apr-17 03:23N 48°43' W 122°31'0 0.0
2018-Apr-17 02:59N 48°43' W 122°31'0 0.0
2018-Apr-17 02:29N 48°43' W 122°31'0 0.0
2018-Apr-17 01:53N 48°43' W 122°31'0 0.0
2018-Apr-17 01:23N 48°43' W 122°31'0 0.0
2018-Apr-17 00:53N 48°43' W 122°31'0 0.0
2018-Apr-17 00:08N 48°43' W 122°31'0 0.0
2018-Apr-16 23:53N 48°43' W 122°31'0 0.0
2018-Apr-16 22:35N 48°43' W 122°31'0 0.0
2018-Apr-16 22:11N 48°43' W 122°31'0 0.0
2018-Apr-16 21:53N 48°43' W 122°31'0 0.0
2018-Apr-16 21:29N 48°43' W 122°31'0 0.0
2018-Apr-16 20:59N 48°43' W 122°31'0 0.0
2018-Apr-16 20:23N 48°43' W 122°31'0 0.0
2018-Apr-16 19:53N 48°43' W 122°31'0 0.0
2018-Apr-16 19:29N 48°43' W 122°31'0 0.0
2018-Apr-16 18:53N 48°43' W 122°31'0 0.0
2018-Apr-16 18:29N 48°43' W 122°31'0 0.0
2018-Apr-16 17:59N 48°43' W 122°31'0 0.0
2018-Apr-16 17:29N 48°43' W 122°31'0 0.0
2018-Apr-16 16:59N 48°43' W 122°31'0 0.0
2018-Apr-16 16:29N 48°43' W 122°31'0 0.0
2018-Apr-16 15:59N 48°43' W 122°31'0 0.0
2018-Apr-16 15:08N 48°43' W 122°31'0 0.0
2018-Apr-16 14:59N 48°43' W 122°31'0 0.0
2018-Apr-16 14:29N 48°43' W 122°31'0 0.0
2018-Apr-16 13:53N 48°43' W 122°31'0 0.0
2018-Apr-16 13:29N 48°43' W 122°31'0 0.0
2018-Apr-16 12:59N 48°43' W 122°31'0 0.0
2018-Apr-16 12:23N 48°43' W 122°31'0 0.0
2018-Apr-16 11:59N 48°43' W 122°31'0 0.0
2018-Apr-16 11:29N 48°43' W 122°31'0 0.0
2018-Apr-16 10:59N 48°43' W 122°31'0 0.0
2018-Apr-16 09:35N 48°43' W 122°31'0 0.1
2018-Apr-16 09:29N 48°43' W 122°31'0 0.0
2018-Apr-16 08:53N 48°43' W 122°31'0 0.0
2018-Apr-16 08:23N 48°43' W 122°31'0 0.0
2018-Apr-16 06:59N 48°43' W 122°31'0 0.0
2018-Apr-16 06:29N 48°43' W 122°31'0 0.0
2018-Apr-16 05:59N 48°43' W 122°31'0 0.0
2018-Apr-16 03:05N 48°43' W 122°31'0 0.0
2018-Apr-16 02:41N 48°43' W 122°31'0 0.0
2018-Apr-16 02:11N 48°43' W 122°31'0 0.0
2018-Apr-16 01:08N 48°43' W 122°31'0 0.0
2018-Apr-16 00:59N 48°43' W 122°31'0 0.0
2018-Apr-16 00:23N 48°43' W 122°31'0 0.0
2018-Apr-15 23:41N 48°43' W 122°31'0 0.0
2018-Apr-15 21:44N 48°43' W 122°31'1 4.2
2018-Apr-15 21:30N 48°43' W 122°32'4 6.6
2018-Apr-15 20:58N 48°39' W 122°34'3 4.6
2018-Apr-15 20:15N 48°37' W 122°37'0 0.1
2018-Apr-15 19:43N 48°37' W 122°37'0 0.3
2018-Apr-15 19:25N 48°37' W 122°37'0 0.2
2018-Apr-15 18:59N 48°37' W 122°37'4 7.7
2018-Apr-15 18:31N 48°40' W 122°41'4 8.1
2018-Apr-15 18:01N 48°42' W 122°45'4 8.6
2018-Apr-15 17:31N 48°44' W 122°51'2 0.1
2018-Apr-15 01:08N 48°46' W 122°54'1 3.9
2018-Apr-15 00:48N 48°46' W 122°52'5 5.9
2018-Apr-15 00:02N 48°47' W 122°58'0 3.2
2018-Apr-15 00:00N 48°47' W 122°58'0 0.1
2018-Apr-14 23:12N 48°47' W 122°58'0 0.4
2018-Apr-14 22:58N 48°47' W 122°58'3 1.6
2018-Apr-14 21:21N 48°47' W 123°02'1 3.8
2018-Apr-14 20:57N 48°46' W 123°04'2 5.3
2018-Apr-14 20:30N 48°44' W 123°05'3 3.2
2018-Apr-14 19:33N 48°41' W 123°08'1 2.5
2018-Apr-14 19:21N 48°41' W 123°08'2 2.0
2018-Apr-14 18:28N 48°39' W 123°07'3 0.4
2018-Apr-14 11:45N 48°40' W 123°11'0 0.0
2018-Apr-14 09:54N 48°40' W 123°11'0 0.0
2018-Apr-14 09:24N 48°40' W 123°11'1 0.1
2018-Apr-14 00:08N 48°39' W 123°11'1 9.3
2018-Apr-14 00:00N 48°40' W 123°13'2 0.3
2018-Apr-13 19:22N 48°41' W 123°12'2 4.2
2018-Apr-13 19:00N 48°41' W 123°09'3 5.9
2018-Apr-13 18:30N 48°39' W 123°07'3 6.4
2018-Apr-13 18:00N 48°36' W 123°04'2 4.7
2018-Apr-13 17:30N 48°34' W 123°02'2 3.4
2018-Apr-13 16:59N 48°33' W 123°00'1 1.2
2018-Apr-13 16:30N 48°32' W 123°01'2 3.3
2018-Apr-13 15:59N 48°34' W 122°59'0 0.0
2018-Apr-13 15:23N 48°34' W 122°59'0 0.0
2018-Apr-13 14:44N 48°34' W 122°59'0 0.0
2018-Apr-13 14:29N 48°34' W 122°59'0 0.0
2018-Apr-13 13:53N 48°34' W 122°59'0 0.0
2018-Apr-13 13:29N 48°34' W 122°59'0 0.0
2018-Apr-13 12:59N 48°34' W 122°59'0 0.0
2018-Apr-13 12:29N 48°34' W 122°59'0 0.0
2018-Apr-13 11:59N 48°34' W 122°59'0 0.0
2018-Apr-13 11:29N 48°34' W 122°59'0 0.0
2018-Apr-13 10:59N 48°34' W 122°59'0 0.0
2018-Apr-13 10:23N 48°34' W 122°59'0 0.1
2018-Apr-13 09:59N 48°34' W 122°59'0 0.0
2018-Apr-13 09:29N 48°34' W 122°59'0 0.0
2018-Apr-13 04:02N 48°34' W 122°59'0 0.0
2018-Apr-13 03:53N 48°34' W 122°59'0 0.0
2018-Apr-13 03:29N 48°34' W 122°59'1 1.7
2018-Apr-13 03:00N 48°33' W 122°59'4 7.3
2018-Apr-13 02:30N 48°34' W 122°54'0 0.5
2018-Apr-13 02:00N 48°35' W 122°54'1 2.6
2018-Apr-13 01:30N 48°34' W 122°52'2 3.5
2018-Apr-13 01:00N 48°33' W 122°50'2 4.7
2018-Apr-13 00:31N 48°32' W 122°47'1 2.6
2018-Apr-12 23:59N 48°31' W 122°45'1 2.2
2018-Apr-12 23:23N 48°29' W 122°45'1 1.7
2018-Apr-12 22:51N 48°28' W 122°45'1 2.5
2018-Apr-12 22:21N 48°29' W 122°43'0 0.3
2018-Apr-12 21:54N 48°29' W 122°43'11 4.3
2018-Apr-12 19:15N 48°39' W 122°34'3 8.0
2018-Apr-12 18:51N 48°42' W 122°32'2 5.7
2018-Apr-12 18:28N 48°43' W 122°31'  

Dump ship's entire track history